KBWI/BWI METAR and TAF weather

Enter ICAO airport designator
Station Type Date Time Source
KBWI METAR 2018/10/16 13:54 UTC NOAA

KBWI 161354Z 34009KT 10SM FEW070 FEW110 BKN160 BKN250 13/05 A3021 RMK AO2 SLP231 T01330050


Station Type Date Time Source
KBWI Decoded METAR 2018/10/16 13:54 UTC NOAA

BALTIMORE-WASHINGTON INTERNATIONAL , MD, United States (KBWI) 39-10N 076-41W 59M
Oct 16, 2018 - 09:54 AM EDT / 2018.10.16 1354 UTC
Wind: from the NNW (340 degrees) at 10 MPH (9 KT):0
Visibility: 10 mile(s):0
Sky conditions: mostly cloudy
Temperature: 55.9 F (13.3 C)
Dew Point: 41.0 F (5.0 C)
Relative Humidity: 57%
Pressure (altimeter): 30.21 in. Hg (1023 hPa)
ob: KBWI 161354Z 34009KT 10SM FEW070 FEW110 BKN160 BKN250 13/05 A3021 RMK AO2 SLP231 T01330050
cycle: 14

Station Type Date Time Source
KBWI TAF 2018/10/16 12:36 UTC NOAA

TAF KBWI 161134Z 1612/1718 32010KT P6SM BKN200
FM161700 30005KT P6SM BKN200
FM162100 23005KT P6SM SCT100 BKN200
FM170000 VRB04KT P6SM SCT100 BKN200
FM171300 28009KT P6SM SCT200
FM171700 28012G22KT P6SM FEW250


Example: see airport list